Time;durP1;ratioP1;P1;durP2;ratioP2;P2;SDS_P1;SDS_P2;PMS_P1;PMS_P2;Temp;Humidity;BMP_temperature;BMP_pressure;BME280_temperature;BME280_humidity;BME280_pressure;Samples;Min_cycle;Max_cycle;Signal;HPM_P1;HPM_P2
2023/05/11 00:00:12;;;;;;;2.97;1.48;;;;;;;;;;5030872;28;20091;-78
2023/05/11 00:02:39;;;;;;;2.67;1.58;;;;;;;;;;5030729;28;20056;-74
2023/05/11 00:05:07;;;;;;;1.80;1.10;;;;;;;;;;5030096;28;20081;-75
2023/05/11 00:07:33;;;;;;;3.10;1.30;;;;;;;;;;5030874;28;20049;-75
2023/05/11 00:10:00;;;;;;;2.75;1.20;;;;;;;;;;5030572;28;20049;-76
2023/05/11 00:12:26;;;;;;;2.90;1.20;;;;;;;;;;5030595;28;20591;-75
2023/05/11 00:14:53;;;;;;;2.38;1.40;;;;;;;;;;5030621;28;20042;-75
2023/05/11 00:17:21;;;;;;;2.50;1.13;;;;;;;;;;5030665;28;20076;-75
2023/05/11 00:19:48;;;;;;;2.60;1.25;;;;;;;;;;5030455;28;20052;-76
2023/05/11 00:22:14;;;;;;;4.05;1.65;;;;;;;;;;5029969;28;20149;-76
2023/05/11 00:24:41;;;;;;;3.10;1.42;;;;;;;;;;5030816;28;20094;-75
2023/05/11 00:27:08;;;;;;;2.58;1.60;;;;;;;;;;5029657;28;20441;-75
2023/05/11 00:29:34;;;;;;;2.92;1.60;;;;;;;;;;5030450;28;20744;-76
2023/05/11 00:32:01;;;;;;;4.97;1.48;;;;;;;;;;5030120;28;20061;-77
2023/05/11 00:34:29;;;;;;;2.35;1.10;;;;;;;;;;5029963;28;20492;-76
2023/05/11 00:36:56;;;;;;;3.67;1.23;;;;;;;;;;5029600;28;20053;-76
2023/05/11 00:39:22;;;;;;;2.72;1.30;;;;;;;;;;5030308;28;20050;-76
2023/05/11 00:41:49;;;;;;;2.00;1.20;;;;;;;;;;5030209;28;20051;-76
2023/05/11 00:44:15;;;;;;;2.65;1.40;;;;;;;;;;5030372;28;20053;-77
2023/05/11 00:46:42;;;;;;;4.47;1.30;;;;;;;;;;5030706;28;20052;-77
2023/05/11 00:49:09;;;;;;;3.83;1.10;;;;;;;;;;5030844;28;20626;-76
2023/05/11 00:51:38;;;;;;;2.33;1.08;;;;;;;;;;5030588;28;20053;-75
2023/05/11 00:54:08;;;;;;;2.38;1.30;;;;;;;;;;5031307;28;20056;-77
2023/05/11 00:56:34;;;;;;;4.50;1.58;;;;;;;;;;5030440;28;20049;-77
2023/05/11 00:59:01;;;;;;;3.10;1.30;;;;;;;;;;5030635;28;20060;-77
2023/05/11 01:01:29;;;;;;;3.97;1.27;;;;;;;;;;5030378;28;20056;-76
2023/05/11 01:03:56;;;;;;;2.83;1.50;;;;;;;;;;5010998;28;20050;-77
2023/05/11 01:06:31;;;;;;;2.03;1.02;;;;;;;;;;5010766;28;20057;-77
2023/05/11 01:09:05;;;;;;;4.03;1.45;;;;;;;;;;5011881;28;20049;-76
2023/05/11 01:11:40;;;;;;;3.22;1.30;;;;;;;;;;5028629;28;20420;-75
2023/05/11 01:14:48;;;;;;;3.38;1.30;;;;;;;;;;5029801;28;20053;-77
2023/05/11 01:17:22;;;;;;;1.55;0.90;;;;;;;;;;5030523;28;20046;-77
2023/05/11 01:19:58;;;;;;;2.42;1.30;;;;;;;;;;5035152;28;20049;-76
2023/05/11 01:22:37;;;;;;;2.88;1.08;;;;;;;;;;5031787;28;20420;-77
2023/05/11 01:25:13;;;;;;;2.03;1.20;;;;;;;;;;5030199;28;20056;-76
2023/05/11 01:28:03;;;;;;;2.55;1.25;;;;;;;;;;5029740;28;20046;-76
2023/05/11 01:30:39;;;;;;;3.47;1.30;;;;;;;;;;5030157;28;20050;-77
2023/05/11 01:33:09;;;;;;;2.35;1.10;;;;;;;;;;5030086;28;20049;-77
2023/05/11 01:35:41;;;;;;;3.45;1.42;;;;;;;;;;5028381;28;20111;-77
2023/05/11 01:38:13;;;;;;;2.42;1.63;;;;;;;;;;5030022;28;20049;-78
2023/05/11 01:40:41;;;;;;;1.90;1.15;;;;;;;;;;5031461;28;20055;-78
2023/05/11 01:43:12;;;;;;;1.92;0.90;;;;;;;;;;5032843;28;20060;-77
2023/05/11 01:45:41;;;;;;;;;;;;;;;;;;5033775;28;20507;-76
2023/05/11 01:48:13;;;;;;;3.25;1.30;;;;;;;;;;5033538;28;19921;-78
2023/05/11 01:50:42;;;;;;;1.95;1.02;;;;;;;;;;5032981;28;20057;-77
2023/05/11 01:53:10;;;;;;;2.45;1.30;;;;;;;;;;5033464;28;20092;-77
2023/05/11 01:55:39;;;;;;;2.08;1.10;;;;;;;;;;5033250;28;20415;-76
2023/05/11 01:58:09;;;;;;;1.73;0.88;;;;;;;;;;5032911;28;20048;-77
2023/05/11 02:00:36;;;;;;;2.90;1.00;;;;;;;;;;5033030;28;20152;-76
2023/05/11 02:03:07;;;;;;;1.63;0.90;;;;;;;;;;5033052;28;20053;-76
2023/05/11 02:08:58;;;;;;;1.50;0.82;;;;;;;;;;5023988;28;20503;-75
2023/05/11 02:11:27;;;;;;;2.25;1.10;;;;;;;;;;5032653;28;20049;-76
2023/05/11 02:13:57;;;;;;;1.95;0.95;;;;;;;;;;5032582;28;20124;-76
2023/05/11 02:16:26;;;;;;;2.47;1.27;;;;;;;;;;5033024;28;20048;-76
2023/05/11 02:18:55;;;;;;;1.75;0.90;;;;;;;;;;5032916;28;20057;-78
2023/05/11 02:24:44;;;;;;;2.60;1.35;;;;;;;;;;5029112;28;20095;-77
2023/05/11 02:27:11;;;;;;;2.42;1.10;;;;;;;;;;5033021;28;20063;-77
2023/05/11 02:29:38;;;;;;;1.73;0.95;;;;;;;;;;5033112;28;20045;-77
2023/05/11 02:32:09;;;;;;;1.85;0.95;;;;;;;;;;5032826;28;20045;-77
2023/05/11 02:34:42;;;;;;;1.25;0.93;;;;;;;;;;5032950;28;20074;-78
2023/05/11 02:37:12;;;;;;;1.95;1.17;;;;;;;;;;5032901;28;20045;-77
2023/05/11 02:39:44;;;;;;;2.33;1.20;;;;;;;;;;5032415;28;20083;-77
2023/05/11 02:42:14;;;;;;;3.33;1.45;;;;;;;;;;5032217;28;20123;-77
2023/05/11 02:44:47;;;;;;;1.23;0.90;;;;;;;;;;5032367;28;20049;-76
2023/05/11 02:47:15;;;;;;;2.28;0.88;;;;;;;;;;5032007;28;20069;-77
2023/05/11 02:49:44;;;;;;;2.13;1.08;;;;;;;;;;5032390;28;20055;-77
2023/05/11 02:52:13;;;;;;;1.67;0.98;;;;;;;;;;5030654;28;20053;-78
2023/05/11 02:54:41;;;;;;;1.95;0.93;;;;;;;;;;5034141;28;20057;-76
2023/05/11 02:57:07;;;;;;;2.65;1.00;;;;;;;;;;5034167;28;20133;-77
2023/05/11 02:59:34;;;;;;;1.63;0.75;;;;;;;;;;5034250;28;20144;-77
2023/05/11 03:02:01;;;;;;;2.42;1.02;;;;;;;;;;5033732;28;20058;-77
2023/05/11 03:04:28;;;;;;;1.85;0.90;;;;;;;;;;5034018;28;20064;-78
2023/05/11 03:06:56;;;;;;;1.20;0.73;;;;;;;;;;5034172;28;20136;-78
2023/05/11 03:09:23;;;;;;;1.80;1.00;;;;;;;;;;5034070;28;20045;-77
2023/05/11 03:11:50;;;;;;;0.90;0.80;;;;;;;;;;5033279;28;20136;-78
2023/05/11 03:14:17;;;;;;;2.20;0.85;;;;;;;;;;5033485;28;20096;-77
2023/05/11 03:16:45;;;;;;;1.63;0.80;;;;;;;;;;5033818;28;20073;-77
2023/05/11 03:19:13;;;;;;;1.05;0.70;;;;;;;;;;5034123;28;20071;-77
2023/05/11 03:21:40;;;;;;;2.40;1.00;;;;;;;;;;5034137;28;20060;-77
2023/05/11 03:24:09;;;;;;;1.40;0.82;;;;;;;;;;5096316;22;20135;-64
2023/05/11 03:26:36;;;;;;;1.80;0.80;;;;;;;;;;5073142;28;20048;-65
2023/05/11 03:29:04;;;;;;;4.15;1.10;;;;;;;;;;5073145;28;20102;-65
2023/05/11 03:31:31;;;;;;;2.17;0.90;;;;;;;;;;5072916;28;20484;-65
2023/05/11 03:33:58;;;;;;;1.98;0.73;;;;;;;;;;5073153;28;20056;-65
2023/05/11 03:36:27;;;;;;;1.45;0.93;;;;;;;;;;5073310;28;20063;-65
2023/05/11 03:38:56;;;;;;;1.60;0.80;;;;;;;;;;5072977;28;20044;-65
2023/05/11 03:41:26;;;;;;;1.85;0.85;;;;;;;;;;5072358;28;20136;-65
2023/05/11 03:43:55;;;;;;;2.95;1.20;;;;;;;;;;5072841;28;20048;-65
2023/05/11 03:46:24;;;;;;;2.08;1.02;;;;;;;;;;5072646;28;20049;-64
2023/05/11 03:48:52;;;;;;;2.17;0.80;;;;;;;;;;5072679;28;20048;-65
2023/05/11 03:51:19;;;;;;;1.63;0.80;;;;;;;;;;5072572;28;20053;-65
2023/05/11 03:53:46;;;;;;;1.60;0.90;;;;;;;;;;5072661;28;20052;-64
2023/05/11 03:56:13;;;;;;;1.13;0.70;;;;;;;;;;5072223;28;20098;-65
2023/05/11 03:58:42;;;;;;;1.85;0.90;;;;;;;;;;5072584;28;20299;-65
2023/05/11 04:01:09;;;;;;;1.23;0.73;;;;;;;;;;5071846;28;20048;-65
2023/05/11 04:03:47;;;;;;;1.75;0.95;;;;;;;;;;5089376;28;20047;-65
2023/05/11 04:06:15;;;;;;;1.13;0.65;;;;;;;;;;5092728;28;20470;-65
2023/05/11 04:08:42;;;;;;;1.77;0.90;;;;;;;;;;5092354;28;20048;-65
2023/05/11 04:11:09;;;;;;;2.20;0.80;;;;;;;;;;5092365;28;20140;-65
2023/05/11 04:13:36;;;;;;;0.88;0.57;;;;;;;;;;5092551;28;20048;-65
2023/05/11 04:16:04;;;;;;;1.83;0.80;;;;;;;;;;5092638;28;20051;-66
2023/05/11 04:18:31;;;;;;;1.88;0.73;;;;;;;;;;5092361;28;20067;-66
2023/05/11 04:20:58;;;;;;;2.15;0.75;;;;;;;;;;5092145;28;20044;-65
2023/05/11 04:23:25;;;;;;;1.02;0.60;;;;;;;;;;5092322;28;20699;-65
2023/05/11 04:25:55;;;;;;;1.15;0.80;;;;;;;;;;5092509;28;20093;-64
2023/05/11 04:28:22;;;;;;;1.23;0.65;;;;;;;;;;5091850;28;20052;-63
2023/05/11 04:30:53;;;;;;;1.10;0.70;;;;;;;;;;5092171;28;20455;-65
2023/05/11 04:33:21;;;;;;;1.08;0.70;;;;;;;;;;5092299;28;20135;-64
2023/05/11 04:35:50;;;;;;;1.55;0.80;;;;;;;;;;5091931;28;20056;-64
2023/05/11 04:38:17;;;;;;;1.20;0.60;;;;;;;;;;5092148;28;20448;-64
2023/05/11 04:40:44;;;;;;;0.93;0.60;;;;;;;;;;5091817;28;20059;-64
2023/05/11 04:43:11;;;;;;;1.08;0.70;;;;;;;;;;5092196;28;20105;-65
2023/05/11 04:45:38;;;;;;;1.48;0.80;;;;;;;;;;5092333;28;20048;-65
2023/05/11 04:48:06;;;;;;;1.08;0.80;;;;;;;;;;5092440;28;20055;-64
2023/05/11 04:50:34;;;;;;;1.92;0.73;;;;;;;;;;5091781;28;20358;-65
2023/05/11 04:53:01;;;;;;;1.17;0.68;;;;;;;;;;5092230;28;20056;-66
2023/05/11 04:55:28;;;;;;;0.85;0.52;;;;;;;;;;5080796;28;20065;-64
2023/05/11 04:57:55;;;;;;;1.42;0.75;;;;;;;;;;5068658;28;20495;-65
2023/05/11 05:00:22;;;;;;;0.95;0.60;;;;;;;;;;5069735;28;20055;-65
2023/05/11 05:02:50;;;;;;;2.03;0.75;;;;;;;;;;5080410;28;20044;-65
2023/05/11 05:05:17;;;;;;;3.10;0.80;;;;;;;;;;5090732;28;20060;-67
2023/05/11 05:07:45;;;;;;;1.00;0.60;;;;;;;;;;5074730;28;20540;-66
2023/05/11 05:10:13;;;;;;;1.33;0.68;;;;;;;;;;5070345;28;20447;-69
2023/05/11 05:12:40;;;;;;;1.35;0.70;;;;;;;;;;5070393;28;20052;-66
2023/05/11 05:15:08;;;;;;;2.55;1.05;;;;;;;;;;5070130;28;20737;-66
2023/05/11 05:17:35;;;;;;;1.50;0.70;;;;;;;;;;5070336;28;20052;-64
2023/05/11 05:20:03;;;;;;;0.80;0.60;;;;;;;;;;5069142;28;20135;-65
2023/05/11 05:22:30;;;;;;;1.13;0.70;;;;;;;;;;5069453;28;20135;-65
2023/05/11 05:24:58;;;;;;;1.38;0.60;;;;;;;;;;5069596;28;20136;-65
2023/05/11 05:27:25;;;;;;;0.80;0.60;;;;;;;;;;5069149;28;20525;-64
2023/05/11 05:29:52;;;;;;;1.27;0.60;;;;;;;;;;5068764;28;20052;-64
2023/05/11 05:32:19;;;;;;;3.15;0.70;;;;;;;;;;5069241;28;20060;-66
2023/05/11 05:34:46;;;;;;;2.00;0.70;;;;;;;;;;5069639;28;20470;-66
2023/05/11 05:37:13;;;;;;;1.67;0.60;;;;;;;;;;5069672;28;20109;-66
2023/05/11 05:39:40;;;;;;;1.05;0.80;;;;;;;;;;5069751;28;20044;-65
2023/05/11 05:42:08;;;;;;;2.95;0.90;;;;;;;;;;5069772;28;20417;-66
2023/05/11 05:44:35;;;;;;;3.10;0.80;;;;;;;;;;5069730;28;20049;-66
2023/05/11 05:47:02;;;;;;;2.67;0.90;;;;;;;;;;5069941;28;20052;-65
2023/05/11 05:49:29;;;;;;;2.03;0.95;;;;;;;;;;5069819;28;20048;-66
2023/05/11 05:51:56;;;;;;;2.38;1.73;;;;;;;;;;5069660;28;20040;-67
2023/05/11 05:54:22;;;;;;;1.42;0.73;;;;;;;;;;5070196;28;20053;-66
2023/05/11 05:56:50;;;;;;;0.93;0.50;;;;;;;;;;5069392;28;20044;-64
2023/05/11 05:59:22;;;;;;;1.23;0.70;;;;;;;;;;5069444;28;20056;-65
2023/05/11 06:01:49;;;;;;;3.35;0.90;;;;;;;;;;5069061;28;20091;-65
2023/05/11 06:04:16;;;;;;;2.55;1.13;;;;;;;;;;5069244;28;20049;-66
2023/05/11 06:06:43;;;;;;;2.75;0.68;;;;;;;;;;5069271;28;20045;-65
2023/05/11 06:09:10;;;;;;;1.55;0.57;;;;;;;;;;5069669;28;20106;-65
2023/05/11 06:11:39;;;;;;;2.85;1.05;;;;;;;;;;5068984;28;20095;-65
2023/05/11 06:14:07;;;;;;;2.38;0.80;;;;;;;;;;5068140;28;20092;-64
2023/05/11 06:16:35;;;;;;;2.90;0.90;;;;;;;;;;5069872;28;20053;-67
2023/05/11 06:19:02;;;;;;;2.53;0.90;;;;;;;;;;5069526;28;20502;-64
2023/05/11 06:21:29;;;;;;;2.40;0.60;;;;;;;;;;5069093;28;20048;-65
2023/05/11 06:23:56;;;;;;;2.03;0.85;;;;;;;;;;5069043;28;20048;-65
2023/05/11 06:26:23;;;;;;;1.73;0.80;;;;;;;;;;5071033;28;20135;-66
2023/05/11 06:28:51;;;;;;;1.60;0.80;;;;;;;;;;5073007;28;20056;-63
2023/05/11 06:31:18;;;;;;;1.42;0.65;;;;;;;;;;5072386;28;20036;-66
2023/05/11 06:33:46;;;;;;;1.05;0.60;;;;;;;;;;5072452;28;20472;-66
2023/05/11 06:36:13;;;;;;;2.38;0.70;;;;;;;;;;5072744;28;20053;-66
2023/05/11 06:38:40;;;;;;;4.40;0.70;;;;;;;;;;5072964;28;20052;-66
2023/05/11 06:41:10;;;;;;;2.30;0.73;;;;;;;;;;5071954;28;20441;-66
2023/05/11 06:43:37;;;;;;;1.55;0.65;;;;;;;;;;5072971;28;20071;-66
2023/05/11 06:46:04;;;;;;;2.70;0.85;;;;;;;;;;5072788;28;20044;-66
2023/05/11 06:48:31;;;;;;;3.63;0.80;;;;;;;;;;5072368;28;20053;-64
2023/05/11 06:51:00;;;;;;;1.92;0.80;;;;;;;;;;5072309;28;20044;-64
2023/05/11 06:53:26;;;;;;;1.67;0.60;;;;;;;;;;5072405;28;20053;-66
2023/05/11 06:55:54;;;;;;;1.85;0.70;;;;;;;;;;5072138;28;20053;-65
2023/05/11 06:58:21;;;;;;;1.63;0.70;;;;;;;;;;5072285;28;20045;-65
2023/05/11 07:00:48;;;;;;;1.05;0.50;;;;;;;;;;5071642;28;20056;-66
2023/05/11 07:03:15;;;;;;;1.88;0.80;;;;;;;;;;5086807;28;20044;-67
2023/05/11 07:05:42;;;;;;;1.13;0.60;;;;;;;;;;5092044;28;20086;-64
2023/05/11 07:08:11;;;;;;;1.33;0.63;;;;;;;;;;5092002;28;20048;-68
2023/05/11 07:10:37;;;;;;;3.08;1.50;;;;;;;;;;5092091;28;20109;-68
2023/05/11 07:13:04;;;;;;;2.97;0.98;;;;;;;;;;5092398;28;20075;-65
2023/05/11 07:15:31;;;;;;;1.77;0.88;;;;;;;;;;5092130;28;20044;-65
2023/05/11 07:18:00;;;;;;;1.52;0.80;;;;;;;;;;5092009;28;20433;-64
2023/05/11 07:20:26;;;;;;;2.28;0.98;;;;;;;;;;5091700;28;20463;-65
2023/05/11 07:22:57;;;;;;;0.75;0.50;;;;;;;;;;5091970;28;20477;-65
2023/05/11 07:25:25;;;;;;;1.85;0.70;;;;;;;;;;5092541;28;20056;-66
2023/05/11 07:27:52;;;;;;;1.65;0.40;;;;;;;;;;5091993;28;20093;-65
2023/05/11 07:30:19;;;;;;;1.17;0.55;;;;;;;;;;5092064;28;20081;-65
2023/05/11 07:32:46;;;;;;;1.50;0.65;;;;;;;;;;5091964;28;20061;-64
2023/05/11 07:35:13;;;;;;;1.10;0.47;;;;;;;;;;5092032;28;20105;-65
2023/05/11 07:37:41;;;;;;;1.65;0.50;;;;;;;;;;5092361;28;20048;-65
2023/05/11 07:40:08;;;;;;;2.63;0.70;;;;;;;;;;5091030;28;20059;-65
2023/05/11 07:42:36;;;;;;;1.55;0.73;;;;;;;;;;5091684;28;20105;-65
2023/05/11 07:45:03;;;;;;;2.78;0.73;;;;;;;;;;5091548;28;20052;-65
2023/05/11 07:47:30;;;;;;;1.52;0.60;;;;;;;;;;5091549;28;20052;-66
2023/05/11 07:49:57;;;;;;;1.05;0.60;;;;;;;;;;5091675;28;20468;-65
2023/05/11 07:52:25;;;;;;;1.35;0.60;;;;;;;;;;5091408;28;20051;-67
2023/05/11 07:54:52;;;;;;;1.65;0.73;;;;;;;;;;5091631;28;20440;-65
2023/05/11 07:57:19;;;;;;;1.80;0.80;;;;;;;;;;5091373;28;20044;-66
2023/05/11 07:59:47;;;;;;;2.33;1.15;;;;;;;;;;5090922;28;20281;-66
2023/05/11 08:02:14;;;;;;;4.18;1.55;;;;;;;;;;5084762;28;20481;-66
2023/05/11 08:04:42;;;;;;;2.17;0.82;;;;;;;;;;5071054;28;20052;-66
2023/05/11 08:07:09;;;;;;;2.90;0.98;;;;;;;;;;5070814;28;20056;-67
2023/05/11 08:09:35;;;;;;;1.70;0.60;;;;;;;;;;5070727;28;20552;-65
2023/05/11 08:12:02;;;;;;;1.23;0.60;;;;;;;;;;5070958;28;20052;-65
2023/05/11 08:14:29;;;;;;;2.80;0.80;;;;;;;;;;5070637;28;20049;-67
2023/05/11 08:16:57;;;;;;;1.60;0.68;;;;;;;;;;5070637;28;20277;-65
2023/05/11 08:19:24;;;;;;;2.63;0.98;;;;;;;;;;5070662;28;20530;-65
2023/05/11 08:21:51;;;;;;;1.75;0.70;;;;;;;;;;5070166;28;20469;-64
2023/05/11 08:24:18;;;;;;;1.77;0.70;;;;;;;;;;5070126;28;20131;-64
2023/05/11 08:26:45;;;;;;;1.60;0.80;;;;;;;;;;5070015;28;20049;-65
2023/05/11 08:29:12;;;;;;;1.35;0.85;;;;;;;;;;5070414;28;20409;-65
2023/05/11 08:31:39;;;;;;;1.48;0.65;;;;;;;;;;5069622;28;20051;-66
2023/05/11 08:34:08;;;;;;;2.25;0.40;;;;;;;;;;5070185;28;20052;-66
2023/05/11 08:36:35;;;;;;;1.05;0.65;;;;;;;;;;5069874;28;20055;-66
2023/05/11 08:39:02;;;;;;;1.95;0.60;;;;;;;;;;5069785;28;20131;-66
2023/05/11 08:41:29;;;;;;;2.05;0.60;;;;;;;;;;5069830;28;20051;-66
2023/05/11 08:43:57;;;;;;;4.10;0.98;;;;;;;;;;5070131;28;20052;-66
2023/05/11 08:46:28;;;;;;;0.98;0.52;;;;;;;;;;5069798;28;20048;-65
2023/05/11 08:48:55;;;;;;;;;;;;;;;;;;5070185;28;20048;-65
2023/05/11 08:51:25;;;;;;;0.75;0.50;;;;;;;;;;5070103;28;20361;-65
2023/05/11 08:53:52;;;;;;;0.75;0.40;;;;;;;;;;5069984;28;20488;-64
2023/05/11 08:56:22;;;;;;;2.45;1.85;;;;;;;;;;5069828;28;20465;-65
2023/05/11 08:58:51;;;;;;;1.37;0.70;;;;;;;;;;5070131;28;20051;-66
2023/05/11 09:01:21;;;;;;;1.80;0.70;;;;;;;;;;5069463;28;20052;-65
2023/05/11 09:03:50;;;;;;;2.67;0.90;;;;;;;;;;5089321;28;20131;-66
2023/05/11 09:06:17;;;;;;;1.27;0.60;;;;;;;;;;5089677;28;20470;-65
2023/05/11 09:08:46;;;;;;;1.48;0.80;;;;;;;;;;5089833;28;20056;-65
2023/05/11 09:11:13;;;;;;;1.10;0.60;;;;;;;;;;5089840;28;20048;-65
2023/05/11 09:13:41;;;;;;;3.70;0.90;;;;;;;;;;5089669;28;20093;-66
2023/05/11 09:16:08;;;;;;;1.67;1.00;;;;;;;;;;5087728;28;20048;-66
2023/05/11 09:18:35;;;;;;;1.58;0.70;;;;;;;;;;5089382;28;20118;-65
2023/05/11 09:21:02;;;;;;;2.25;0.90;;;;;;;;;;5089344;28;20052;-65
2023/05/11 09:23:29;;;;;;;1.92;0.70;;;;;;;;;;5049484;28;20053;-66
2023/05/11 09:25:57;;;;;;;1.05;0.80;;;;;;;;;;5049794;28;20052;-66
2023/05/11 09:28:25;;;;;;;1.48;0.50;;;;;;;;;;5049566;28;20498;-65
2023/05/11 09:30:52;;;;;;;1.67;0.52;;;;;;;;;;5049601;28;20056;-66
2023/05/11 09:33:24;;;;;;;2.38;0.57;;;;;;;;;;5049562;28;20564;-68
2023/05/11 09:35:51;;;;;;;1.23;0.68;;;;;;;;;;5049636;28;20059;-65
2023/05/11 09:38:19;;;;;;;2.70;1.38;;;;;;;;;;5049477;28;20103;-66
2023/05/11 09:40:53;;;;;;;2.03;0.52;;;;;;;;;;5048988;28;20049;-65
2023/05/11 09:43:23;;;;;;;2.13;0.82;;;;;;;;;;5049318;28;20056;-66
2023/05/11 09:45:50;;;;;;;1.52;0.60;;;;;;;;;;5049538;28;20094;-65
2023/05/11 09:48:30;;;;;;;2.05;0.63;;;;;;;;;;5048638;28;20165;-64
2023/05/11 09:51:04;;;;;;;3.85;0.82;;;;;;;;;;5048943;28;20347;-65
2023/05/11 09:53:35;;;;;;;3.33;0.80;;;;;;;;;;5049335;28;20045;-64
2023/05/11 09:56:03;;;;;;;2.72;0.88;;;;;;;;;;5049054;28;20061;-64
2023/05/11 09:58:46;;;;;;;1.48;0.73;;;;;;;;;;5049322;28;20088;-65
2023/05/11 10:01:13;;;;;;;1.42;0.57;;;;;;;;;;5050981;28;20120;-64
2023/05/11 10:03:47;;;;;;;0.90;0.60;;;;;;;;;;5088502;28;20039;-64
2023/05/11 10:06:14;;;;;;;2.65;0.80;;;;;;;;;;5093735;28;20079;-64
2023/05/11 10:08:41;;;;;;;2.45;0.70;;;;;;;;;;5093396;28;20059;-64
2023/05/11 10:11:08;;;;;;;1.55;0.57;;;;;;;;;;5092938;28;20051;-64
2023/05/11 10:13:37;;;;;;;1.48;0.70;;;;;;;;;;5093236;28;20056;-66
2023/05/11 10:16:05;;;;;;;1.73;1.20;;;;;;;;;;5093310;28;20059;-65
2023/05/11 10:18:33;;;;;;;1.10;0.70;;;;;;;;;;5092996;28;20063;-64
2023/05/11 10:21:00;;;;;;;0.88;0.60;;;;;;;;;;5092994;28;20139;-64
2023/05/11 10:23:27;;;;;;;1.13;0.50;;;;;;;;;;5091967;28;20553;-64
2023/05/11 10:25:54;;;;;;;1.27;0.60;;;;;;;;;;5092804;28;20446;-65
2023/05/11 10:28:22;;;;;;;0.88;0.60;;;;;;;;;;5092431;28;20050;-67
2023/05/11 10:30:52;;;;;;;2.80;1.08;;;;;;;;;;5092814;28;20497;-65
2023/05/11 10:33:19;;;;;;;1.90;1.00;;;;;;;;;;5093133;28;20389;-64
2023/05/11 10:35:46;;;;;;;1.85;1.02;;;;;;;;;;5092755;28;20048;-65
2023/05/11 10:38:15;;;;;;;1.85;0.80;;;;;;;;;;5092082;28;20051;-65
2023/05/11 10:40:43;;;;;;;1.58;0.70;;;;;;;;;;5092273;28;20056;-65
2023/05/11 10:43:34;;;;;;;2.47;0.65;;;;;;;;;;5092115;28;20047;-64
2023/05/11 10:46:13;;;;;;;2.03;0.73;;;;;;;;;;5092765;28;20497;-64
2023/05/11 10:49:04;;;;;;;3.15;0.90;;;;;;;;;;5092601;28;20135;-70
2023/05/11 10:51:47;;;;;;;3.45;1.60;;;;;;;;;;5092498;28;20059;-66
2023/05/11 10:54:29;;;;;;;5.75;2.65;;;;;;;;;;5092602;28;20457;-65
2023/05/11 10:57:20;;;;;;;5.10;2.15;;;;;;;;;;5092482;28;20052;-66
2023/05/11 11:00:16;;;;;;;4.45;1.90;;;;;;;;;;5092415;28;20055;-64
2023/05/11 11:02:45;;;;;;;2.13;1.08;;;;;;;;;;5081609;28;20053;-65
2023/05/11 11:05:16;;;;;;;5.07;2.17;;;;;;;;;;5072081;28;20044;-65
2023/05/11 11:07:59;;;;;;;4.63;1.63;;;;;;;;;;5072243;28;20052;-66
2023/05/11 11:10:31;;;;;;;3.42;1.58;;;;;;;;;;5072050;28;20125;-65
2023/05/11 11:13:02;;;;;;;3.58;1.52;;;;;;;;;;5071565;28;20052;-66
2023/05/11 11:16:03;;;;;;;3.35;1.38;;;;;;;;;;5072043;28;20053;-65
2023/05/11 11:18:33;;;;;;;4.18;1.30;;;;;;;;;;5072041;28;20444;-65
2023/05/11 11:21:01;;;;;;;2.15;1.00;;;;;;;;;;5071345;28;20079;-66
2023/05/11 11:23:44;;;;;;;1.65;0.90;;;;;;;;;;5071722;28;20079;-65
2023/05/11 11:26:14;;;;;;;4.22;1.52;;;;;;;;;;5072052;28;20062;-66
2023/05/11 11:29:09;;;;;;;2.60;1.25;;;;;;;;;;5071964;28;20071;-65
2023/05/11 11:31:36;;;;;;;2.13;0.98;;;;;;;;;;5071699;28;20053;-66
2023/05/11 11:34:36;;;;;;;1.90;0.90;;;;;;;;;;5071464;28;20056;-67
2023/05/11 11:37:04;;;;;;;2.45;1.23;;;;;;;;;;5072077;28;20044;-65
2023/05/11 11:39:49;;;;;;;2.22;1.10;;;;;;;;;;5071580;28;20410;-65
2023/05/11 11:42:18;;;;;;;2.95;1.67;;;;;;;;;;5071913;28;20055;-66
2023/05/11 11:44:45;;;;;;;4.25;1.67;;;;;;;;;;5071351;28;20058;-65
2023/05/11 11:47:14;;;;;;;3.88;2.00;;;;;;;;;;5071487;28;20048;-65
2023/05/11 11:49:43;;;;;;;4.10;1.67;;;;;;;;;;5070934;28;20062;-65
2023/05/11 11:52:14;;;;;;;2.50;1.00;;;;;;;;;;5070841;28;20512;-67
2023/05/11 11:54:42;;;;;;;2.65;1.00;;;;;;;;;;5071286;28;20052;-65
2023/05/11 11:57:42;;;;;;;2.30;1.00;;;;;;;;;;5079226;28;20044;-65
2023/05/11 12:00:11;;;;;;;;;;;;;;;;;;5048635;28;20057;-66
2023/05/11 12:02:40;;;;;;;2.45;1.27;;;;;;;;;;5073152;28;19920;-66
2023/05/11 12:05:12;;;;;;;2.03;0.85;;;;;;;;;;5071099;28;20044;-66
2023/05/11 12:07:42;;;;;;;1.33;0.80;;;;;;;;;;5071007;28;20135;-65
2023/05/11 12:10:10;;;;;;;1.97;0.83;;;;;;;;;;5070668;28;20105;-65
2023/05/11 12:12:38;;;;;;;1.55;0.80;;;;;;;;;;5071132;28;20044;-65
2023/05/11 12:15:07;;;;;;;1.63;0.80;;;;;;;;;;5071228;28;20056;-67
2023/05/11 12:17:38;;;;;;;1.08;0.65;;;;;;;;;;5070975;28;20082;-66
2023/05/11 12:20:13;;;;;;;;;;;;;;;;;;5071022;28;20463;-66
2023/05/11 12:22:40;;;;;;;1.15;0.70;;;;;;;;;;5070389;28;20393;-66
2023/05/11 12:25:10;;;;;;;0.95;0.65;;;;;;;;;;5070083;28;20456;-66
2023/05/11 12:27:47;;;;;;;1.67;0.73;;;;;;;;;;5071146;28;20382;-66
2023/05/11 12:30:20;;;;;;;1.58;0.60;;;;;;;;;;5070433;28;20048;-66
2023/05/11 12:32:47;;;;;;;1.25;0.60;;;;;;;;;;5070634;28;20048;-65
2023/05/11 12:35:23;;;;;;;0.65;0.50;;;;;;;;;;5070136;28;20449;-65
2023/05/11 12:37:50;;;;;;;0.90;0.60;;;;;;;;;;5070089;28;20049;-67
2023/05/11 12:40:17;;;;;;;0.93;0.60;;;;;;;;;;5070128;28;20055;-68
2023/05/11 12:42:50;;;;;;;1.17;0.50;;;;;;;;;;5070473;28;20491;-68
2023/05/11 12:45:19;;;;;;;0.93;0.60;;;;;;;;;;5069885;28;20055;-67
2023/05/11 12:47:46;;;;;;;0.82;0.55;;;;;;;;;;5070407;28;20505;-68
2023/05/11 12:50:15;;;;;;;1.70;0.77;;;;;;;;;;5069858;28;20497;-68
2023/05/11 12:52:42;;;;;;;0.95;0.70;;;;;;;;;;5070401;28;20052;-68
2023/05/11 12:55:10;;;;;;;1.42;0.73;;;;;;;;;;5069855;28;20051;-67
2023/05/11 12:57:38;;;;;;;1.42;0.82;;;;;;;;;;5070147;28;20109;-67
2023/05/11 13:00:10;;;;;;;1.65;0.60;;;;;;;;;;5069299;28;20052;-68
2023/05/11 13:02:44;;;;;;;1.25;0.70;;;;;;;;;;5079316;28;20048;-69
2023/05/11 13:05:13;;;;;;;1.73;0.77;;;;;;;;;;5090041;28;20144;-67
2023/05/11 13:07:42;;;;;;;1.80;0.82;;;;;;;;;;5090206;28;20048;-68
2023/05/11 13:10:11;;;;;;;1.83;0.83;;;;;;;;;;5089788;28;20048;-67
2023/05/11 13:12:48;;;;;;;2.33;1.10;;;;;;;;;;5090033;28;20113;-68
2023/05/11 13:15:15;;;;;;;2.20;0.75;;;;;;;;;;5090088;28;20052;-68
2023/05/11 13:17:43;;;;;;;2.65;1.05;;;;;;;;;;5090062;28;20052;-68
2023/05/11 13:20:19;;;;;;;1.60;0.70;;;;;;;;;;5089835;28;20055;-69
2023/05/11 13:22:49;;;;;;;3.30;0.80;;;;;;;;;;5089646;28;20233;-67
2023/05/11 13:25:17;;;;;;;1.38;0.77;;;;;;;;;;5089925;28;20051;-68
2023/05/11 13:27:44;;;;;;;1.77;0.80;;;;;;;;;;5089726;28;20089;-68
2023/05/11 13:30:11;;;;;;;1.80;0.77;;;;;;;;;;5089682;28;20516;-68
2023/05/11 13:32:38;;;;;;;1.70;0.68;;;;;;;;;;5089947;28;20048;-68
2023/05/11 13:35:06;;;;;;;2.08;0.80;;;;;;;;;;5091538;28;20501;-67
2023/05/11 13:37:33;;;;;;;1.38;0.80;;;;;;;;;;5094326;28;20105;-68
2023/05/11 13:40:01;;;;;;;1.42;0.60;;;;;;;;;;5093624;28;20048;-68
2023/05/11 13:42:28;;;;;;;1.65;0.80;;;;;;;;;;5093770;28;20052;-68
2023/05/11 13:44:55;;;;;;;1.30;0.70;;;;;;;;;;5094030;28;20105;-67
2023/05/11 13:47:22;;;;;;;1.20;0.70;;;;;;;;;;5093934;28;20063;-68
2023/05/11 13:49:49;;;;;;;1.40;0.60;;;;;;;;;;5093213;28;20048;-69
2023/05/11 13:52:16;;;;;;;1.30;0.70;;;;;;;;;;5093745;28;20047;-68
2023/05/11 13:54:43;;;;;;;1.35;0.73;;;;;;;;;;5093875;28;20059;-68
2023/05/11 13:57:11;;;;;;;1.98;1.17;;;;;;;;;;5092386;28;20517;-68
2023/05/11 13:59:38;;;;;;;1.20;0.70;;;;;;;;;;5073364;28;20052;-67
2023/05/11 14:02:05;;;;;;;2.45;0.90;;;;;;;;;;5078285;28;20051;-69
2023/05/11 14:04:32;;;;;;;1.52;0.80;;;;;;;;;;5093096;28;20080;-68
2023/05/11 14:06:59;;;;;;;0.80;0.65;;;;;;;;;;5093374;28;20104;-69
2023/05/11 14:09:26;;;;;;;2.25;0.77;;;;;;;;;;5093580;28;20052;-67
2023/05/11 14:11:53;;;;;;;2.15;1.08;;;;;;;;;;5093045;28;20052;-69
2023/05/11 14:14:21;;;;;;;1.65;0.93;;;;;;;;;;5093400;28;20051;-68
2023/05/11 14:16:48;;;;;;;4.28;1.80;;;;;;;;;;5093017;28;20044;-68
2023/05/11 14:19:15;;;;;;;6.63;3.20;;;;;;;;;;5093147;28;20051;-68
2023/05/11 14:21:42;;;;;;;3.67;1.67;;;;;;;;;;5092787;28;20505;-67
2023/05/11 14:24:09;;;;;;;2.85;1.48;;;;;;;;;;5093137;28;20048;-68
2023/05/11 14:26:36;;;;;;;3.88;1.90;;;;;;;;;;5093283;28;20059;-70
2023/05/11 14:29:02;;;;;;;3.85;1.50;;;;;;;;;;5093030;28;20098;-68
2023/05/11 14:31:31;;;;;;;2.95;1.45;;;;;;;;;;5092401;28;20048;-69
2023/05/11 14:33:57;;;;;;;2.38;1.15;;;;;;;;;;5092940;28;20521;-67
2023/05/11 14:36:24;;;;;;;2.33;1.10;;;;;;;;;;5093026;28;20134;-70
2023/05/11 14:38:51;;;;;;;2.75;1.27;;;;;;;;;;5093086;28;20055;-68
2023/05/11 14:41:19;;;;;;;3.15;1.60;;;;;;;;;;5089811;28;20055;-68
2023/05/11 14:43:48;;;;;;;3.15;1.75;;;;;;;;;;5072287;28;20052;-68
2023/05/11 14:46:15;;;;;;;2.58;1.20;;;;;;;;;;5071398;28;20057;-69
2023/05/11 14:48:43;;;;;;;2.58;1.15;;;;;;;;;;5072618;28;20056;-68
2023/05/11 14:51:10;;;;;;;2.83;1.00;;;;;;;;;;5072260;28;20052;-68
2023/05/11 14:53:37;;;;;;;2.28;1.27;;;;;;;;;;5072509;28;20237;-69
2023/05/11 14:56:04;;;;;;;3.08;1.58;;;;;;;;;;5072064;28;20137;-68
2023/05/11 14:58:30;;;;;;;3.05;1.35;;;;;;;;;;5071852;28;20056;-66
2023/05/11 15:00:57;;;;;;;1.60;1.10;;;;;;;;;;5070977;28;20109;-66